sensor_id;sensor_type;location;lat;lon;timestamp;pressure;altitude;pressure_sealevel;temperature;humidity
26775;BME280;14362;51.902;7.626;2022-10-30T00:02:35;101076.84;;;15.67;100.00
26775;BME280;14362;51.902;7.626;2022-10-30T00:06:38;101076.94;;;15.59;100.00
26775;BME280;14362;51.902;7.626;2022-10-30T00:10:40;101088.06;;;15.55;100.00
26775;BME280;14362;51.902;7.626;2022-10-30T00:14:42;101081.50;;;15.51;100.00
26775;BME280;14362;51.902;7.626;2022-10-30T00:18:43;101079.63;;;15.43;100.00
26775;BME280;14362;51.902;7.626;2022-10-30T00:22:46;101083.25;;;15.44;100.00
26775;BME280;14362;51.902;7.626;2022-10-30T00:26:47;101081.81;;;15.38;100.00
26775;BME280;14362;51.902;7.626;2022-10-30T00:30:49;101091.53;;;15.29;100.00
26775;BME280;14362;51.902;7.626;2022-10-30T00:34:50;101093.03;;;15.26;100.00
26775;BME280;14362;51.902;7.626;2022-10-30T00:38:53;101089.72;;;15.24;100.00
26775;BME280;14362;51.902;7.626;2022-10-30T00:42:54;101100.84;;;15.21;100.00
26775;BME280;14362;51.902;7.626;2022-10-30T00:46:56;101102.22;;;15.15;100.00
26775;BME280;14362;51.902;7.626;2022-10-30T00:51:00;101099.41;;;15.15;100.00
26775;BME280;14362;51.902;7.626;2022-10-30T00:55:07;101100.94;;;15.12;100.00
26775;BME280;14362;51.902;7.626;2022-10-30T00:59:11;101099.84;;;15.05;100.00
26775;BME280;14362;51.902;7.626;2022-10-30T01:03:14;101097.94;;;14.97;100.00
26775;BME280;14362;51.902;7.626;2022-10-30T01:07:16;101110.81;;;14.98;100.00
26775;BME280;14362;51.902;7.626;2022-10-30T01:11:19;101107.59;;;14.87;100.00
26775;BME280;14362;51.902;7.626;2022-10-30T01:15:25;101115.28;;;14.78;100.00
26775;BME280;14362;51.902;7.626;2022-10-30T01:19:33;101117.44;;;14.73;100.00
26775;BME280;14362;51.902;7.626;2022-10-30T01:23:47;101121.16;;;14.65;100.00
26775;BME280;14362;51.902;7.626;2022-10-30T01:27:58;101108.84;;;14.57;100.00
26775;BME280;14362;51.902;7.626;2022-10-30T01:32:12;101110.00;;;14.56;100.00
26775;BME280;14362;51.902;7.626;2022-10-30T01:36:21;101101.13;;;14.54;100.00
26775;BME280;14362;51.902;7.626;2022-10-30T01:40:24;101108.69;;;14.54;100.00
26775;BME280;14362;51.902;7.626;2022-10-30T01:44:30;101101.13;;;14.54;100.00
26775;BME280;14362;51.902;7.626;2022-10-30T01:48:51;101103.09;;;14.54;100.00
26775;BME280;14362;51.902;7.626;2022-10-30T01:53:03;101104.72;;;14.55;100.00
26775;BME280;14362;51.902;7.626;2022-10-30T01:57:15;101101.25;;;14.58;100.00
26775;BME280;14362;51.902;7.626;2022-10-30T02:01:22;101097.97;;;14.56;100.00
26775;BME280;14362;51.902;7.626;2022-10-30T02:05:29;101097.81;;;14.52;100.00
26775;BME280;14362;51.902;7.626;2022-10-30T02:09:33;101105.44;;;14.52;100.00
26775;BME280;14362;51.902;7.626;2022-10-30T02:13:35;101098.84;;;14.48;100.00
26775;BME280;14362;51.902;7.626;2022-10-30T02:17:38;101099.66;;;14.48;100.00
26775;BME280;14362;51.902;7.626;2022-10-30T02:21:41;101096.38;;;14.46;100.00
26775;BME280;14362;51.902;7.626;2022-10-30T02:25:42;101100.69;;;14.44;100.00
26775;BME280;14362;51.902;7.626;2022-10-30T02:29:44;101107.47;;;14.43;100.00
26775;BME280;14362;51.902;7.626;2022-10-30T02:33:45;101091.81;;;14.42;100.00
26775;BME280;14362;51.902;7.626;2022-10-30T02:37:48;101101.84;;;14.43;100.00
26775;BME280;14362;51.902;7.626;2022-10-30T02:41:50;101093.63;;;14.38;100.00
26775;BME280;14362;51.902;7.626;2022-10-30T02:45:51;101102.53;;;14.40;100.00
26775;BME280;14362;51.902;7.626;2022-10-30T02:49:54;101096.44;;;14.38;100.00
26775;BME280;14362;51.902;7.626;2022-10-30T02:53:58;101092.47;;;14.39;100.00
26775;BME280;14362;51.902;7.626;2022-10-30T02:57:59;101097.13;;;14.35;100.00
26775;BME280;14362;51.902;7.626;2022-10-30T03:02:01;101102.28;;;14.33;100.00
26775;BME280;14362;51.902;7.626;2022-10-30T03:06:04;101096.19;;;14.31;100.00
26775;BME280;14362;51.902;7.626;2022-10-30T03:10:08;101101.63;;;14.28;100.00
26775;BME280;14362;51.902;7.626;2022-10-30T03:14:09;101101.50;;;14.24;100.00
26775;BME280;14362;51.902;7.626;2022-10-30T03:18:11;101103.34;;;14.20;100.00
26775;BME280;14362;51.902;7.626;2022-10-30T03:22:12;101106.00;;;14.17;100.00
26775;BME280;14362;51.902;7.626;2022-10-30T03:26:16;101115.59;;;14.07;100.00
26775;BME280;14362;51.902;7.626;2022-10-30T03:30:17;101119.25;;;13.99;100.00
26775;BME280;14362;51.902;7.626;2022-10-30T03:34:19;101124.22;;;13.94;100.00
26775;BME280;14362;51.902;7.626;2022-10-30T03:38:20;101115.19;;;13.88;100.00
26775;BME280;14362;51.902;7.626;2022-10-30T03:42:23;101112.09;;;13.81;100.00
26775;BME280;14362;51.902;7.626;2022-10-30T03:46:24;101118.34;;;13.78;100.00
26775;BME280;14362;51.902;7.626;2022-10-30T03:50:26;101119.38;;;13.74;100.00
26775;BME280;14362;51.902;7.626;2022-10-30T03:54:27;101127.16;;;13.68;100.00
26775;BME280;14362;51.902;7.626;2022-10-30T03:58:30;101117.09;;;13.67;100.00
26775;BME280;14362;51.902;7.626;2022-10-30T04:02:32;101126.34;;;13.59;100.00
26775;BME280;14362;51.902;7.626;2022-10-30T04:06:33;101130.66;;;13.57;100.00
26775;BME280;14362;51.902;7.626;2022-10-30T04:10:34;101133.44;;;13.57;100.00
26775;BME280;14362;51.902;7.626;2022-10-30T04:14:37;101124.41;;;13.51;100.00
26775;BME280;14362;51.902;7.626;2022-10-30T04:18:39;101127.25;;;13.43;100.00
26775;BME280;14362;51.902;7.626;2022-10-30T04:22:40;101138.28;;;13.39;100.00
26775;BME280;14362;51.902;7.626;2022-10-30T04:26:41;101136.31;;;13.31;100.00
26775;BME280;14362;51.902;7.626;2022-10-30T04:30:44;101125.63;;;13.25;100.00
26775;BME280;14362;51.902;7.626;2022-10-30T04:34:46;101118.56;;;13.19;100.00
26775;BME280;14362;51.902;7.626;2022-10-30T04:38:50;101119.41;;;13.11;100.00
26775;BME280;14362;51.902;7.626;2022-10-30T04:42:51;101125.69;;;13.08;100.00
26775;BME280;14362;51.902;7.626;2022-10-30T04:46:54;101124.19;;;13.02;100.00
26775;BME280;14362;51.902;7.626;2022-10-30T04:50:57;101127.00;;;12.94;100.00
26775;BME280;14362;51.902;7.626;2022-10-30T04:54:59;101120.91;;;12.92;100.00
26775;BME280;14362;51.902;7.626;2022-10-30T04:59:01;101126.97;;;12.85;100.00
26775;BME280;14362;51.902;7.626;2022-10-30T05:03:04;101127.63;;;12.82;100.00
26775;BME280;14362;51.902;7.626;2022-10-30T05:07:06;101115.78;;;12.77;100.00
26775;BME280;14362;51.902;7.626;2022-10-30T05:11:07;101120.56;;;12.68;100.00
26775;BME280;14362;51.902;7.626;2022-10-30T05:15:09;101128.63;;;12.69;100.00
26775;BME280;14362;51.902;7.626;2022-10-30T05:19:12;101127.97;;;12.64;100.00
26775;BME280;14362;51.902;7.626;2022-10-30T05:23:13;101126.97;;;12.60;100.00
26775;BME280;14362;51.902;7.626;2022-10-30T05:27:15;101120.88;;;12.58;100.00
26775;BME280;14362;51.902;7.626;2022-10-30T05:31:16;101117.09;;;12.54;100.00
26775;BME280;14362;51.902;7.626;2022-10-30T05:35:19;101111.00;;;12.52;100.00
26775;BME280;14362;51.902;7.626;2022-10-30T05:39:21;101103.47;;;12.44;100.00
26775;BME280;14362;51.902;7.626;2022-10-30T05:43:22;101102.31;;;12.45;100.00
26775;BME280;14362;51.902;7.626;2022-10-30T05:47:24;101097.53;;;12.45;100.00
26775;BME280;14362;51.902;7.626;2022-10-30T05:51:27;101101.13;;;12.46;100.00
26775;BME280;14362;51.902;7.626;2022-10-30T05:55:28;101098.81;;;12.39;100.00
26775;BME280;14362;51.902;7.626;2022-10-30T05:59:30;101104.59;;;12.43;100.00
26775;BME280;14362;51.902;7.626;2022-10-30T06:03:31;101107.38;;;12.34;100.00
26775;BME280;14362;51.902;7.626;2022-10-30T06:07:34;101111.00;;;12.35;100.00
26775;BME280;14362;51.902;7.626;2022-10-30T06:11:35;101106.88;;;12.32;100.00
26775;BME280;14362;51.902;7.626;2022-10-30T06:15:37;101102.75;;;12.30;100.00
26775;BME280;14362;51.902;7.626;2022-10-30T06:19:38;101098.50;;;12.24;100.00
26775;BME280;14362;51.902;7.626;2022-10-30T06:23:41;101102.44;;;12.23;100.00
26775;BME280;14362;51.902;7.626;2022-10-30T06:27:42;101103.72;;;12.17;100.00
26775;BME280;14362;51.902;7.626;2022-10-30T06:31:44;101098.16;;;12.17;100.00
26775;BME280;14362;51.902;7.626;2022-10-30T06:35:47;101110.13;;;12.18;100.00
26775;BME280;14362;51.902;7.626;2022-10-30T06:39:49;101107.84;;;12.20;100.00
26775;BME280;14362;51.902;7.626;2022-10-30T06:43:51;101128.25;;;12.20;100.00
26775;BME280;14362;51.902;7.626;2022-10-30T06:47:52;101126.09;;;12.17;100.00
26775;BME280;14362;51.902;7.626;2022-10-30T06:51:54;101133.81;;;12.20;100.00
26775;BME280;14362;51.902;7.626;2022-10-30T06:55:58;101143.53;;;12.23;100.00
26775;BME280;14362;51.902;7.626;2022-10-30T06:59:59;101141.06;;;12.21;100.00
26775;BME280;14362;51.902;7.626;2022-10-30T07:04:01;101146.31;;;12.23;100.00
26775;BME280;14362;51.902;7.626;2022-10-30T07:08:02;101152.41;;;12.24;100.00
26775;BME280;14362;51.902;7.626;2022-10-30T07:12:06;101158.50;;;12.26;100.00
26775;BME280;14362;51.902;7.626;2022-10-30T07:16:07;101153.06;;;12.30;100.00
26775;BME280;14362;51.902;7.626;2022-10-30T07:20:10;101152.13;;;12.34;100.00
26775;BME280;14362;51.902;7.626;2022-10-30T07:24:11;101156.38;;;12.40;100.00
26775;BME280;14362;51.902;7.626;2022-10-30T07:28:14;101153.94;;;12.47;100.00
26775;BME280;14362;51.902;7.626;2022-10-30T07:32:15;101156.59;;;12.52;100.00
26775;BME280;14362;51.902;7.626;2022-10-30T07:36:17;101156.91;;;12.59;100.00
26775;BME280;14362;51.902;7.626;2022-10-30T07:40:18;101155.09;;;12.63;100.00
26775;BME280;14362;51.902;7.626;2022-10-30T07:44:21;101146.72;;;12.72;100.00
26775;BME280;14362;51.902;7.626;2022-10-30T07:48:23;101157.59;;;12.82;100.00
26775;BME280;14362;51.902;7.626;2022-10-30T07:52:24;101162.88;;;12.92;100.00
26775;BME280;14362;51.902;7.626;2022-10-30T07:56:25;101168.31;;;13.05;100.00
26775;BME280;14362;51.902;7.626;2022-10-30T08:00:28;101172.75;;;13.15;100.00
26775;BME280;14362;51.902;7.626;2022-10-30T08:04:30;101168.44;;;13.26;100.00
26775;BME280;14362;51.902;7.626;2022-10-30T08:08:31;101165.81;;;13.37;100.00
26775;BME280;14362;51.902;7.626;2022-10-30T08:12:33;101175.63;;;13.52;100.00
26775;BME280;14362;51.902;7.626;2022-10-30T08:16:36;101167.19;;;13.69;100.00
26775;BME280;14362;51.902;7.626;2022-10-30T08:20:38;101165.81;;;13.83;100.00
26775;BME280;14362;51.902;7.626;2022-10-30T08:24:40;101162.13;;;14.00;100.00
26775;BME280;14362;51.902;7.626;2022-10-30T08:28:41;101160.78;;;14.14;100.00
26775;BME280;14362;51.902;7.626;2022-10-30T08:32:44;101146.97;;;14.30;100.00
26775;BME280;14362;51.902;7.626;2022-10-30T08:36:47;101143.56;;;14.44;100.00
26775;BME280;14362;51.902;7.626;2022-10-30T08:40:48;101149.09;;;14.61;100.00
26775;BME280;14362;51.902;7.626;2022-10-30T08:44:50;101134.94;;;14.78;100.00
26775;BME280;14362;51.902;7.626;2022-10-30T08:48:53;101130.13;;;14.99;100.00
26775;BME280;14362;51.902;7.626;2022-10-30T08:52:55;101129.88;;;15.25;100.00
26775;BME280;14362;51.902;7.626;2022-10-30T08:56:56;101132.91;;;15.52;100.00
26775;BME280;14362;51.902;7.626;2022-10-30T09:00:57;101121.84;;;15.79;100.00
26775;BME280;14362;51.902;7.626;2022-10-30T09:05:00;101128.66;;;16.02;100.00
26775;BME280;14362;51.902;7.626;2022-10-30T09:09:02;101123.25;;;16.21;100.00
26775;BME280;14362;51.902;7.626;2022-10-30T09:13:03;101120.31;;;16.42;100.00
26775;BME280;14362;51.902;7.626;2022-10-30T09:17:04;101120.91;;;16.59;100.00
26775;BME280;14362;51.902;7.626;2022-10-30T09:21:07;101134.41;;;16.81;100.00
26775;BME280;14362;51.902;7.626;2022-10-30T09:25:09;101127.31;;;16.99;100.00
26775;BME280;14362;51.902;7.626;2022-10-30T09:29:10;101134.91;;;17.10;100.00
26775;BME280;14362;51.902;7.626;2022-10-30T09:33:11;101129.72;;;17.24;100.00
26775;BME280;14362;51.902;7.626;2022-10-30T09:37:14;101134.13;;;17.37;100.00
26775;BME280;14362;51.902;7.626;2022-10-30T09:41:32;101134.50;;;17.51;100.00
26775;BME280;14362;51.902;7.626;2022-10-30T09:45:57;101134.47;;;17.63;100.00
26775;BME280;14362;51.902;7.626;2022-10-30T09:50:18;101144.94;;;17.78;100.00
26775;BME280;14362;51.902;7.626;2022-10-30T09:54:36;101134.47;;;17.94;100.00
26775;BME280;14362;51.902;7.626;2022-10-30T09:58:50;101124.38;;;18.08;100.00
26775;BME280;14362;51.902;7.626;2022-10-30T10:03:07;101125.09;;;18.21;100.00
26775;BME280;14362;51.902;7.626;2022-10-30T10:07:19;101112.69;;;18.41;99.42
26775;BME280;14362;51.902;7.626;2022-10-30T10:11:25;101107.50;;;18.43;98.86
26775;BME280;14362;51.902;7.626;2022-10-30T10:15:36;101104.56;;;18.54;97.71
26775;BME280;14362;51.902;7.626;2022-10-30T10:19:43;101105.78;;;18.72;97.10
26775;BME280;14362;51.902;7.626;2022-10-30T10:23:47;101104.09;;;18.87;95.50
26775;BME280;14362;51.902;7.626;2022-10-30T10:28:02;101097.56;;;19.02;94.90
26775;BME280;14362;51.902;7.626;2022-10-30T10:32:34;101086.19;;;19.17;95.19
26775;BME280;14362;51.902;7.626;2022-10-30T10:36:44;101082.75;;;19.27;95.39
26775;BME280;14362;51.902;7.626;2022-10-30T10:40:53;101090.25;;;19.39;94.89
26775;BME280;14362;51.902;7.626;2022-10-30T10:45:16;101091.25;;;19.50;93.38
26775;BME280;14362;51.902;7.626;2022-10-30T10:49:30;101094.78;;;19.65;91.67
26775;BME280;14362;51.902;7.626;2022-10-30T10:53:40;101088.09;;;19.73;91.07
26775;BME280;14362;51.902;7.626;2022-10-30T10:57:44;101084.19;;;19.81;91.12
26775;BME280;14362;51.902;7.626;2022-10-30T11:01:53;101086.31;;;19.88;91.50
26775;BME280;14362;51.902;7.626;2022-10-30T11:05:58;101078.50;;;20.00;89.91
26775;BME280;14362;51.902;7.626;2022-10-30T11:10:01;101074.75;;;20.19;89.62
26775;BME280;14362;51.902;7.626;2022-10-30T11:14:09;101070.66;;;20.16;89.85
26775;BME280;14362;51.902;7.626;2022-10-30T11:18:14;101053.56;;;20.35;86.64
26775;BME280;14362;51.902;7.626;2022-10-30T11:22:20;101061.91;;;20.25;95.83
26775;BME280;14362;51.902;7.626;2022-10-30T11:26:33;101049.34;;;19.55;100.00
26775;BME280;14362;51.902;7.626;2022-10-30T11:30:34;101065.34;;;19.25;100.00
26775;BME280;14362;51.902;7.626;2022-10-30T11:34:37;101059.41;;;19.11;100.00
26775;BME280;14362;51.902;7.626;2022-10-30T11:38:39;101058.44;;;19.23;99.28
26775;BME280;14362;51.902;7.626;2022-10-30T11:42:41;101060.38;;;19.19;100.00
26775;BME280;14362;51.902;7.626;2022-10-30T11:46:44;101050.31;;;19.21;100.00
26775;BME280;14362;51.902;7.626;2022-10-30T11:50:48;101053.75;;;19.53;98.04
26775;BME280;14362;51.902;7.626;2022-10-30T11:54:53;101047.66;;;19.73;96.35
26775;BME280;14362;51.902;7.626;2022-10-30T11:58:58;101047.91;;;19.87;95.04
26775;BME280;14362;51.902;7.626;2022-10-30T12:03:01;101048.34;;;19.89;94.92
26775;BME280;14362;51.902;7.626;2022-10-30T12:07:08;101047.91;;;20.09;94.71
26775;BME280;14362;51.902;7.626;2022-10-30T12:11:17;101055.41;;;20.24;92.94
26775;BME280;14362;51.902;7.626;2022-10-30T12:15:20;101049.47;;;20.33;93.78
26775;BME280;14362;51.902;7.626;2022-10-30T12:19:23;101050.16;;;20.52;91.05
26775;BME280;14362;51.902;7.626;2022-10-30T12:23:27;101037.00;;;20.66;88.39
26775;BME280;14362;51.902;7.626;2022-10-30T12:27:29;101029.47;;;20.77;88.67
26775;BME280;14362;51.902;7.626;2022-10-30T12:31:36;101025.53;;;20.85;87.79
26775;BME280;14362;51.902;7.626;2022-10-30T12:35:41;101030.53;;;20.95;87.29
26775;BME280;14362;51.902;7.626;2022-10-30T12:39:54;101029.13;;;21.12;82.23
26775;BME280;14362;51.902;7.626;2022-10-30T12:44:03;101019.56;;;21.27;82.01
26775;BME280;14362;51.902;7.626;2022-10-30T12:48:14;101020.41;;;21.31;82.47
26775;BME280;14362;51.902;7.626;2022-10-30T12:52:20;101019.56;;;21.27;83.12
26775;BME280;14362;51.902;7.626;2022-10-30T12:56:28;101027.03;;;21.45;82.06
26775;BME280;14362;51.902;7.626;2022-10-30T13:00:37;101009.63;;;21.47;81.42
26775;BME280;14362;51.902;7.626;2022-10-30T13:04:43;101010.06;;;21.49;81.01
26775;BME280;14362;51.902;7.626;2022-10-30T13:08:58;101009.38;;;21.59;80.89
26775;BME280;14362;51.902;7.626;2022-10-30T13:13:09;101009.13;;;21.77;80.98
26775;BME280;14362;51.902;7.626;2022-10-30T13:17:13;101009.09;;;21.74;81.62
26775;BME280;14362;51.902;7.626;2022-10-30T13:21:21;101010.44;;;21.90;78.25
26775;BME280;14362;51.902;7.626;2022-10-30T13:25:26;101003.00;;;21.72;78.20
26775;BME280;14362;51.902;7.626;2022-10-30T13:29:39;101001.34;;;21.68;77.78
26775;BME280;14362;51.902;7.626;2022-10-30T13:33:50;101002.47;;;21.60;78.77
26775;BME280;14362;51.902;7.626;2022-10-30T13:37:58;101005.72;;;21.58;79.60
26775;BME280;14362;51.902;7.626;2022-10-30T13:42:17;101004.44;;;21.56;79.08
26775;BME280;14362;51.902;7.626;2022-10-30T13:46:49;100995.06;;;21.52;78.46
26775;BME280;14362;51.902;7.626;2022-10-30T13:51:08;101000.34;;;21.50;80.76
26775;BME280;14362;51.902;7.626;2022-10-30T13:55:17;100997.44;;;21.43;80.83
26775;BME280;14362;51.902;7.626;2022-10-30T13:59:27;100996.22;;;21.40;80.66
26775;BME280;14362;51.902;7.626;2022-10-30T14:03:42;100995.81;;;21.42;80.87
26775;BME280;14362;51.902;7.626;2022-10-30T14:07:51;100996.22;;;21.40;81.81
26775;BME280;14362;51.902;7.626;2022-10-30T14:11:54;100997.00;;;21.41;81.27
26775;BME280;14362;51.902;7.626;2022-10-30T14:15:59;101012.81;;;21.42;80.91
26775;BME280;14362;51.902;7.626;2022-10-30T14:20:24;101005.50;;;21.41;81.74
26775;BME280;14362;51.902;7.626;2022-10-30T14:24:26;101004.22;;;21.35;83.66
26775;BME280;14362;51.902;7.626;2022-10-30T14:28:29;101005.81;;;21.29;84.89
26775;BME280;14362;51.902;7.626;2022-10-30T14:32:37;101009.78;;;21.24;86.46
26775;BME280;14362;51.902;7.626;2022-10-30T14:36:50;101010.97;;;21.20;88.70
26775;BME280;14362;51.902;7.626;2022-10-30T14:45:25;101014.09;;;21.08;90.70
26775;BME280;14362;51.902;7.626;2022-10-30T14:49:46;101007.53;;;21.00;90.00
26775;BME280;14362;51.902;7.626;2022-10-30T14:53:57;101008.63;;;20.92;89.96
26775;BME280;14362;51.902;7.626;2022-10-30T14:58:20;101010.09;;;20.79;92.41
26775;BME280;14362;51.902;7.626;2022-10-30T15:02:33;101007.44;;;20.64;94.11
26775;BME280;14362;51.902;7.626;2022-10-30T15:06:45;101009.25;;;20.50;95.77
26775;BME280;14362;51.902;7.626;2022-10-30T15:11:05;100998.13;;;20.34;97.47
26775;BME280;14362;51.902;7.626;2022-10-30T15:15:13;100994.38;;;20.27;97.64
26775;BME280;14362;51.902;7.626;2022-10-30T15:19:15;100995.47;;;20.19;99.22
26775;BME280;14362;51.902;7.626;2022-10-30T15:23:20;101001.38;;;20.07;99.05
26775;BME280;14362;51.902;7.626;2022-10-30T15:27:25;100994.69;;;19.96;99.90
26775;BME280;14362;51.902;7.626;2022-10-30T15:31:27;100995.28;;;19.82;100.00
26775;BME280;14362;51.902;7.626;2022-10-30T15:35:29;100994.69;;;19.70;100.00
26775;BME280;14362;51.902;7.626;2022-10-30T15:39:31;100992.03;;;19.58;100.00
26775;BME280;14362;51.902;7.626;2022-10-30T15:43:36;101006.00;;;19.48;100.00
26775;BME280;14362;51.902;7.626;2022-10-30T15:47:44;100994.06;;;19.35;100.00
26775;BME280;14362;51.902;7.626;2022-10-30T15:51:46;100998.25;;;19.22;100.00
26775;BME280;14362;51.902;7.626;2022-10-30T15:55:48;101007.25;;;19.09;100.00
26775;BME280;14362;51.902;7.626;2022-10-30T15:59:53;101007.44;;;18.97;100.00
26775;BME280;14362;51.902;7.626;2022-10-30T16:03:56;100999.59;;;18.87;100.00
26775;BME280;14362;51.902;7.626;2022-10-30T16:07:59;101006.44;;;18.67;100.00
26775;BME280;14362;51.902;7.626;2022-10-30T16:12:02;101016.94;;;18.51;100.00
26775;BME280;14362;51.902;7.626;2022-10-30T16:16:08;101013.09;;;18.40;100.00
26775;BME280;14362;51.902;7.626;2022-10-30T16:20:12;101030.06;;;18.25;100.00
26775;BME280;14362;51.902;7.626;2022-10-30T16:24:14;101033.91;;;18.17;100.00
26775;BME280;14362;51.902;7.626;2022-10-30T16:28:23;101030.38;;;18.04;100.00
26775;BME280;14362;51.902;7.626;2022-10-30T16:32:28;101036.13;;;17.92;100.00
26775;BME280;14362;51.902;7.626;2022-10-30T16:36:31;101048.78;;;17.83;100.00
26775;BME280;14362;51.902;7.626;2022-10-30T16:40:33;101054.97;;;17.73;100.00
26775;BME280;14362;51.902;7.626;2022-10-30T16:44:35;101058.69;;;17.61;100.00
26775;BME280;14362;51.902;7.626;2022-10-30T16:48:40;101056.69;;;17.47;100.00
26775;BME280;14362;51.902;7.626;2022-10-30T16:52:44;101066.50;;;17.37;100.00
26775;BME280;14362;51.902;7.626;2022-10-30T16:56:46;101069.00;;;17.27;100.00
26775;BME280;14362;51.902;7.626;2022-10-30T17:00:49;101080.78;;;17.17;100.00
26775;BME280;14362;51.902;7.626;2022-10-30T17:04:55;101084.94;;;17.07;100.00
26775;BME280;14362;51.902;7.626;2022-10-30T17:08:58;101093.91;;;16.97;100.00
26775;BME280;14362;51.902;7.626;2022-10-30T17:13:34;101096.06;;;16.88;100.00
26775;BME280;14362;51.902;7.626;2022-10-30T17:17:37;101099.84;;;16.80;100.00
26775;BME280;14362;51.902;7.626;2022-10-30T17:21:41;101106.78;;;16.71;100.00
26775;BME280;14362;51.902;7.626;2022-10-30T17:25:43;101103.28;;;16.62;100.00
26775;BME280;14362;51.902;7.626;2022-10-30T17:29:44;101107.53;;;16.56;100.00
26775;BME280;14362;51.902;7.626;2022-10-30T17:33:47;101118.09;;;16.47;100.00
26775;BME280;14362;51.902;7.626;2022-10-30T17:37:50;101125.97;;;16.42;100.00
26775;BME280;14362;51.902;7.626;2022-10-30T17:41:54;101126.09;;;16.33;100.00
26775;BME280;14362;51.902;7.626;2022-10-30T17:45:57;101123.00;;;16.26;100.00
26775;BME280;14362;51.902;7.626;2022-10-30T17:49:58;101143.50;;;16.15;100.00
26775;BME280;14362;51.902;7.626;2022-10-30T17:54:08;101146.44;;;16.06;100.00
26775;BME280;14362;51.902;7.626;2022-10-30T17:58:13;101145.06;;;16.00;100.00
26775;BME280;14362;51.902;7.626;2022-10-30T18:02:15;101153.94;;;15.90;100.00
26775;BME280;14362;51.902;7.626;2022-10-30T18:06:18;101163.06;;;15.87;100.00
26775;BME280;14362;51.902;7.626;2022-10-30T18:10:21;101165.06;;;15.75;100.00
26775;BME280;14362;51.902;7.626;2022-10-30T18:14:23;101170.75;;;15.66;100.00
26775;BME280;14362;51.902;7.626;2022-10-30T18:18:24;101175.28;;;15.59;100.00
26775;BME280;14362;51.902;7.626;2022-10-30T18:22:26;101183.00;;;15.50;100.00
26775;BME280;14362;51.902;7.626;2022-10-30T18:26:28;101187.66;;;15.46;100.00
26775;BME280;14362;51.902;7.626;2022-10-30T18:30:30;101189.88;;;15.40;100.00
26775;BME280;14362;51.902;7.626;2022-10-30T18:34:32;101192.41;;;15.34;100.00
26775;BME280;14362;51.902;7.626;2022-10-30T18:38:33;101199.06;;;15.29;100.00
26775;BME280;14362;51.902;7.626;2022-10-30T18:42:36;101195.97;;;15.22;100.00
26775;BME280;14362;51.902;7.626;2022-10-30T18:46:38;101198.16;;;15.17;100.00
26775;BME280;14362;51.902;7.626;2022-10-30T18:50:39;101209.94;;;15.10;100.00
26775;BME280;14362;51.902;7.626;2022-10-30T18:54:42;101212.47;;;15.03;100.00
26775;BME280;14362;51.902;7.626;2022-10-30T18:58:45;101209.34;;;15.05;100.00
26775;BME280;14362;51.902;7.626;2022-10-30T19:02:46;101203.25;;;15.03;100.00
26775;BME280;14362;51.902;7.626;2022-10-30T19:06:47;101199.47;;;14.99;100.00
26775;BME280;14362;51.902;7.626;2022-10-30T19:10:50;101201.06;;;14.88;100.00
26775;BME280;14362;51.902;7.626;2022-10-30T19:14:57;101204.66;;;14.88;100.00
26775;BME280;14362;51.902;7.626;2022-10-30T19:19:00;101201.75;;;14.85;100.00
26775;BME280;14362;51.902;7.626;2022-10-30T19:23:01;101205.34;;;14.85;100.00
26775;BME280;14362;51.902;7.626;2022-10-30T19:27:04;101205.91;;;14.79;100.00
26775;BME280;14362;51.902;7.626;2022-10-30T19:31:11;101212.00;;;14.81;100.00
26775;BME280;14362;51.902;7.626;2022-10-30T19:35:14;101214.66;;;14.77;100.00
26775;BME280;14362;51.902;7.626;2022-10-30T19:39:16;101216.84;;;14.72;100.00
26775;BME280;14362;51.902;7.626;2022-10-30T19:43:18;101206.78;;;14.71;100.00
26775;BME280;14362;51.902;7.626;2022-10-30T19:47:20;101224.97;;;14.65;100.00
26775;BME280;14362;51.902;7.626;2022-10-30T19:51:22;101233.41;;;14.65;100.00
26775;BME280;14362;51.902;7.626;2022-10-30T19:55:24;101231.28;;;14.62;100.00
26775;BME280;14362;51.902;7.626;2022-10-30T19:59:26;101236.41;;;14.60;100.00
26775;BME280;14362;51.902;7.626;2022-10-30T20:03:29;101253.72;;;14.62;100.00
26775;BME280;14362;51.902;7.626;2022-10-30T20:07:30;101255.22;;;14.59;100.00
26775;BME280;14362;51.902;7.626;2022-10-30T20:11:31;101254.75;;;14.57;100.00
26775;BME280;14362;51.902;7.626;2022-10-30T20:15:33;101267.75;;;14.62;100.00
26775;BME280;14362;51.902;7.626;2022-10-30T20:19:36;101276.66;;;14.64;100.00
26775;BME280;14362;51.902;7.626;2022-10-30T20:23:38;101278.28;;;14.65;100.00
26775;BME280;14362;51.902;7.626;2022-10-30T20:27:40;101292.31;;;14.65;100.00
26775;BME280;14362;51.902;7.626;2022-10-30T20:31:42;101288.84;;;14.68;100.00
26775;BME280;14362;51.902;7.626;2022-10-30T20:35:46;101290.63;;;14.72;100.00
26775;BME280;14362;51.902;7.626;2022-10-30T20:39:47;101301.31;;;14.79;100.00
26775;BME280;14362;51.902;7.626;2022-10-30T20:43:49;101295.34;;;14.89;100.00
26775;BME280;14362;51.902;7.626;2022-10-30T20:47:50;101298.41;;;14.96;100.00
26775;BME280;14362;51.902;7.626;2022-10-30T20:51:53;101313.91;;;15.02;100.00
26775;BME280;14362;51.902;7.626;2022-10-30T20:55:55;101312.06;;;15.06;100.00
26775;BME280;14362;51.902;7.626;2022-10-30T20:59:56;101314.19;;;15.09;100.00
26775;BME280;14362;51.902;7.626;2022-10-30T21:03:58;101313.84;;;15.10;100.00
26775;BME280;14362;51.902;7.626;2022-10-30T21:08:01;101319.09;;;15.12;100.00
26775;BME280;14362;51.902;7.626;2022-10-30T21:12:03;101311.84;;;15.11;100.00